Terminal Aerodrome Forecast
Issued by NWS Greer, SC

Home | Current Version | Previous Version | Text Only | Print | Product List | Glossary On
Versions: 1 2 3 4 5 6 7 8 9 10 11 12 13 14 15 16 17 18 19 20 21 22 23 24 25 26 27 28 29
000
FTUS42 KGSP 172335
TAFAVL
TAF
KAVL 172335Z 1800/1824 20008KT P6SM VCSH OVC045
     FM180400 22009KT 6SM BR VCSH OVC040
     FM180600 34010KT 5SM BR VCSH OVC025
     FM180900 34011G21KT 4SM BR OVC008
     FM181100 34012G22KT 6SM BR BKN050
     FM181300 34015G25KT P6SM SCT110 BKN250
     FM182100 35011KT P6SM FEW250=

USA.gov is the U.S. government's official web portal to all federal, state and local government web resources and services.